Time;durP1;ratioP1;P1;durP2;ratioP2;P2;SDS_P1;SDS_P2;PMS_P1;PMS_P2;Temp;Humidity;BMP_temperature;BMP_pressure;BME280_temperature;BME280_humidity;BME280_pressure;Samples;Min_cycle;Max_cycle;Signal;HPM_P1;HPM_P2
2022/03/31 00:00:42;;;;;;;50.20;27.27;;;7.70;99.90;;;;;;5027650;28;20200;-77
2022/03/31 00:03:10;;;;;;;50.30;25.90;;;7.60;99.90;;;;;;5028619;28;20247;-77
2022/03/31 00:05:36;;;;;;;55.63;28.50;;;7.60;99.90;;;;;;5027065;28;20424;-77
2022/03/31 00:08:06;;;;;;;46.33;25.70;;;7.80;99.90;;;;;;5028279;28;20614;-76
2022/03/31 00:10:35;;;;;;;49.17;26.63;;;7.60;99.90;;;;;;5043387;28;20474;-77
2022/03/31 00:13:02;;;;;;;57.73;27.73;;;7.70;99.90;;;;;;5028736;28;20446;-76
2022/03/31 00:15:30;;;;;;;48.43;26.13;;;7.70;99.90;;;;;;5028251;28;20981;-76
2022/03/31 00:17:58;;;;;;;64.33;27.57;;;7.60;99.90;;;;;;5028434;28;20427;-76
2022/03/31 00:20:25;;;;;;;51.47;27.90;;;7.60;99.90;;;;;;5028643;28;20772;-77
2022/03/31 00:22:50;;;;;;;54.90;27.97;;;7.60;99.90;;;;;;5028464;28;20435;-76
2022/03/31 00:25:16;;;;;;;50.97;27.13;;;7.60;99.90;;;;;;5026484;28;20456;-77
2022/03/31 00:27:42;;;;;;;62.80;29.73;;;7.50;99.90;;;;;;5026290;28;20214;-77
2022/03/31 00:30:10;;;;;;;61.93;30.13;;;7.50;99.90;;;;;;5026701;28;20181;-77
2022/03/31 00:32:37;;;;;;;54.00;27.37;;;7.50;99.90;;;;;;5027960;28;20466;-77
2022/03/31 00:35:03;;;;;;;63.30;28.77;;;7.50;99.90;;;;;;5027740;28;20473;-77
2022/03/31 00:37:29;;;;;;;63.37;30.00;;;7.50;99.90;;;;;;5026468;28;20430;-77
2022/03/31 00:39:55;;;;;;;55.30;28.37;;;7.40;99.90;;;;;;5026529;28;20419;-79
2022/03/31 00:42:22;;;;;;;62.17;31.03;;;7.50;99.90;;;;;;5031393;28;20705;-76
2022/03/31 00:44:48;;;;;;;62.40;30.73;;;7.40;99.90;;;;;;5031440;28;20475;-76
2022/03/31 00:47:15;;;;;;;62.33;29.17;;;7.50;99.90;;;;;;5046438;28;21082;-77
2022/03/31 00:49:41;;;;;;;58.47;29.00;;;7.50;99.90;;;;;;5030089;28;20519;-76
2022/03/31 00:52:07;;;;;;;65.40;29.97;;;7.60;99.90;;;;;;5029999;28;20445;-75
2022/03/31 00:54:34;;;;;;;53.07;29.17;;;7.50;99.90;;;;;;5030049;28;20421;-76
2022/03/31 00:57:03;;;;;;;63.47;29.20;;;7.50;99.90;;;;;;5013461;28;20450;-78
2022/03/31 00:59:29;;;;;;;61.20;28.57;;;7.50;99.90;;;;;;5029868;28;20423;-77
2022/03/31 01:01:56;;;;;;;65.73;29.90;;;7.40;99.90;;;;;;5032071;28;20467;-78
2022/03/31 01:04:22;;;;;;;67.07;30.30;;;7.40;99.90;;;;;;5029902;28;20473;-76
2022/03/31 01:06:47;;;;;;;62.67;30.10;;;7.40;99.90;;;;;;5031159;28;20459;-78
2022/03/31 01:09:14;;;;;;;59.07;29.40;;;7.50;99.90;;;;;;5029715;28;20729;-78
2022/03/31 01:11:40;;;;;;;70.13;31.80;;;7.50;99.90;;;;;;5029812;28;20270;-78
2022/03/31 01:14:07;;;;;;;55.33;28.83;;;7.50;99.90;;;;;;5046037;28;20881;-78
2022/03/31 01:16:33;;;;;;;71.83;31.60;;;7.50;99.90;;;;;;5030709;28;20411;-78
2022/03/31 01:19:07;;;;;;;69.40;33.27;;;7.40;99.90;;;;;;5030983;28;20477;-77
2022/03/31 01:21:37;;;;;;;57.63;30.57;;;7.50;99.90;;;;;;5029171;28;20431;-77
2022/03/31 01:24:08;;;;;;;57.40;29.60;;;7.50;99.90;;;;;;5030683;28;20434;-78
2022/03/31 01:26:35;;;;;;;58.20;30.67;;;7.60;99.90;;;;;;5030521;28;20459;-78
2022/03/31 01:29:01;;;;;;;76.20;30.20;;;7.50;99.90;;;;;;5029359;28;20803;-78
2022/03/31 01:31:27;;;;;;;63.00;30.10;;;7.40;99.90;;;;;;5029122;28;20423;-78
2022/03/31 01:33:53;;;;;;;54.63;29.17;;;7.50;99.90;;;;;;5030789;28;20431;-77
2022/03/31 01:36:20;;;;;;;73.50;31.53;;;7.50;99.90;;;;;;5030516;28;20202;-77
2022/03/31 01:38:46;;;;;;;60.00;30.70;;;7.50;99.90;;;;;;5030519;28;20465;-77
2022/03/31 01:41:12;;;;;;;61.63;31.33;;;7.50;99.90;;;;;;5030718;28;20455;-78
2022/03/31 01:43:38;;;;;;;70.83;32.47;;;7.50;99.90;;;;;;5030484;28;20521;-77
2022/03/31 01:46:05;;;;;;;64.63;33.50;;;7.50;99.90;;;;;;5030341;28;20181;-78
2022/03/31 01:48:31;;;;;;;65.13;31.93;;;7.50;99.90;;;;;;5028964;28;20771;-77
2022/03/31 01:50:57;;;;;;;69.17;32.37;;;7.50;99.90;;;;;;5029703;28;20450;-79
2022/03/31 01:53:22;;;;;;;69.93;30.60;;;7.60;99.90;;;;;;5028498;28;20621;-77
2022/03/31 01:55:48;;;;;;;67.90;30.30;;;7.60;99.90;;;;;;5029216;28;20655;-77
2022/03/31 01:58:14;;;;;;;60.87;30.67;;;7.60;99.90;;;;;;5029089;28;20520;-78
2022/03/31 02:00:39;;;;;;;66.37;32.17;;;7.60;99.90;;;;;;5030575;28;20203;-77
2022/03/31 02:03:05;;;;;;;78.33;33.57;;;7.80;99.90;;;;;;5030355;28;20216;-77
2022/03/31 02:05:31;;;;;;;66.47;30.70;;;7.50;99.90;;;;;;5030353;28;20764;-77
2022/03/31 02:07:57;;;;;;;57.00;30.10;;;7.50;99.90;;;;;;5030322;28;20725;-80
2022/03/31 02:10:27;;;;;;;70.10;31.50;;;7.50;99.90;;;;;;5049556;28;20242;-79
2022/03/31 02:12:54;;;;;;;60.30;30.33;;;7.50;99.90;;;;;;5030274;28;20446;-79
2022/03/31 02:15:20;;;;;;;58.80;30.10;;;7.50;99.90;;;;;;5030429;28;20430;-78
2022/03/31 02:17:47;;;;;;;51.50;29.87;;;7.60;99.90;;;;;;5028917;28;20848;-80
2022/03/31 02:20:12;;;;;;;66.20;30.60;;;7.60;99.90;;;;;;5030277;28;20428;-78
2022/03/31 02:22:39;;;;;;;59.80;30.13;;;7.70;99.90;;;;;;5029669;28;20497;-78
2022/03/31 02:25:08;;;;;;;55.97;30.30;;;7.60;99.90;;;;;;5028574;28;20753;-79
2022/03/31 02:27:35;;;;;;;66.53;31.00;;;7.60;99.90;;;;;;5029521;28;20498;-76
2022/03/31 02:30:02;;;;;;;65.33;31.23;;;7.70;99.90;;;;;;5011741;28;20821;-77
2022/03/31 02:32:28;;;;;;;80.57;33.63;;;7.60;99.90;;;;;;5029320;28;20975;-77
2022/03/31 02:34:53;;;;;;;64.60;30.80;;;7.60;99.90;;;;;;5044613;28;20861;-76
2022/03/31 02:37:19;;;;;;;71.13;32.30;;;7.50;99.90;;;;;;5029251;28;20740;-76
2022/03/31 02:39:45;;;;;;;69.47;32.10;;;7.50;99.90;;;;;;5029358;28;20450;-76
2022/03/31 02:42:11;;;;;;;68.70;34.23;;;7.40;99.90;;;;;;5029084;28;20220;-76
2022/03/31 02:44:37;;;;;;;86.53;36.50;;;7.30;99.90;;;;;;5044374;28;20203;-76
2022/03/31 02:47:03;;;;;;;69.23;32.20;;;7.30;99.90;;;;;;5029031;28;20501;-78
2022/03/31 02:49:29;;;;;;;70.10;33.07;;;7.20;99.90;;;;;;5027705;28;20470;-78
2022/03/31 02:51:55;;;;;;;70.70;34.30;;;7.40;99.90;;;;;;5011083;28;20491;-78
2022/03/31 02:57:15;;;;;;;70.50;33.23;;;7.40;99.90;;;;;;4991658;28;21141;-77
2022/03/31 02:59:41;;;;;;;79.50;35.37;;;7.40;99.90;;;;;;5029013;28;20465;-78
2022/03/31 03:02:07;;;;;;;74.63;34.93;;;7.40;99.90;;;;;;5029356;28;20212;-77
2022/03/31 03:04:33;;;;;;;72.63;33.90;;;7.40;99.90;;;;;;5010887;28;20243;-78
2022/03/31 03:06:58;;;;;;;72.93;32.10;;;7.30;99.90;;;;;;5043938;28;20769;-78
2022/03/31 03:09:24;;;;;;;77.57;34.67;;;7.40;99.90;;;;;;5010752;28;20436;-77
2022/03/31 03:11:50;;;;;;;80.63;35.63;;;7.40;99.90;;;;;;5010723;28;20290;-77
2022/03/31 03:14:15;;;;;;;77.23;33.37;;;7.40;99.90;;;;;;5027370;28;20283;-77
2022/03/31 03:16:42;;;;;;;69.83;34.60;;;7.40;99.90;;;;;;5028779;28;20181;-78
2022/03/31 03:19:08;;;;;;;74.67;34.83;;;7.30;99.90;;;;;;5028656;28;20518;-77
2022/03/31 03:21:34;;;;;;;102.90;37.33;;;7.30;99.90;;;;;;5027254;28;20951;-80
2022/03/31 03:24:03;;;;;;;85.00;35.70;;;7.30;99.90;;;;;;5029081;28;20450;-80
2022/03/31 03:26:30;;;;;;;77.00;33.87;;;7.30;99.90;;;;;;5028736;28;20421;-80
2022/03/31 03:28:56;;;;;;;85.20;32.77;;;7.40;99.90;;;;;;5028884;28;20477;-80
2022/03/31 03:31:21;;;;;;;67.13;31.00;;;7.20;99.90;;;;;;5028615;28;20839;-80
2022/03/31 03:33:47;;;;;;;55.70;28.20;;;7.30;99.90;;;;;;5028544;28;20431;-78
2022/03/31 03:36:19;;;;;;;83.40;30.20;;;7.30;99.90;;;;;;5028643;28;20181;-79
2022/03/31 03:38:45;;;;;;;50.93;26.07;;;7.30;99.90;;;;;;5027041;28;20906;-81
2022/03/31 03:41:12;;;;;;;63.20;28.13;;;7.20;99.90;;;;;;5027376;28;20427;-80
2022/03/31 03:43:39;;;;;;;66.60;29.57;;;7.10;99.90;;;;;;5027159;28;20470;-81
2022/03/31 03:46:05;;;;;;;63.17;28.90;;;7.00;99.90;;;;;;5027337;28;20502;-81
2022/03/31 03:48:31;;;;;;;48.67;25.90;;;7.00;99.90;;;;;;5027325;28;20566;-77
2022/03/31 03:50:57;;;;;;;42.63;24.70;;;7.10;99.90;;;;;;5029853;28;20193;-77
2022/03/31 03:53:22;;;;;;;50.20;25.20;;;6.90;99.90;;;;;;5028851;28;20927;-77
2022/03/31 03:55:48;;;;;;;46.07;25.43;;;6.90;99.90;;;;;;5027751;28;20773;-79
2022/03/31 03:58:14;;;;;;;59.53;27.00;;;6.90;99.90;;;;;;5044848;28;20198;-79
2022/03/31 04:00:40;;;;;;;68.63;27.13;;;6.80;99.90;;;;;;5028852;28;20192;-78
2022/03/31 04:03:08;;;;;;;53.27;26.83;;;6.90;99.90;;;;;;5043661;28;20232;-80
2022/03/31 04:05:33;;;;;;;51.93;24.70;;;6.80;99.90;;;;;;5028879;28;20422;-76
2022/03/31 04:07:59;;;;;;;52.83;25.93;;;6.80;99.90;;;;;;5043268;28;21021;-76
2022/03/31 04:10:25;;;;;;;55.33;27.10;;;6.80;99.90;;;;;;5026869;28;20242;-76
2022/03/31 04:12:51;;;;;;;45.73;25.53;;;6.80;99.90;;;;;;5028213;28;20271;-77
2022/03/31 04:15:16;;;;;;;62.03;28.57;;;6.90;99.90;;;;;;5027729;28;20258;-76
2022/03/31 04:17:43;;;;;;;72.47;27.30;;;6.90;99.90;;;;;;5032054;28;20224;-76
2022/03/31 04:20:13;;;;;;;55.83;27.10;;;6.80;99.90;;;;;;5032140;28;20189;-76
2022/03/31 04:22:39;;;;;;;57.13;26.50;;;6.80;99.90;;;;;;5014390;28;20443;-76
2022/03/31 04:25:07;;;;;;;52.00;25.10;;;6.80;99.90;;;;;;5014234;28;20517;-76
2022/03/31 04:27:34;;;;;;;57.50;26.10;;;6.80;99.90;;;;;;5031899;28;20497;-76
2022/03/31 04:30:00;;;;;;;49.57;25.63;;;6.90;99.90;;;;;;5030967;28;20425;-76
2022/03/31 04:32:26;;;;;;;50.30;25.10;;;6.80;99.90;;;;;;5029437;28;20458;-76
2022/03/31 04:34:51;;;;;;;40.60;23.00;;;6.90;99.90;;;;;;5046158;28;20680;-76
2022/03/31 04:37:18;;;;;;;54.20;25.37;;;6.90;99.90;;;;;;5029620;28;20181;-76
2022/03/31 04:39:44;;;;;;;43.97;24.87;;;6.90;99.90;;;;;;5031131;28;20185;-76
2022/03/31 04:42:09;;;;;;;45.10;25.07;;;6.90;99.90;;;;;;5029677;28;21002;-77
2022/03/31 04:44:38;;;;;;;44.20;25.30;;;6.90;99.90;;;;;;5031049;28;20239;-76
2022/03/31 04:47:04;;;;;;;45.27;22.87;;;6.90;99.90;;;;;;5045785;28;20293;-76
2022/03/31 04:49:30;;;;;;;47.50;24.30;;;6.90;99.90;;;;;;5030980;28;20423;-76
2022/03/31 04:51:56;;;;;;;55.00;26.30;;;7.00;99.90;;;;;;5029447;28;21132;-76
2022/03/31 04:54:22;;;;;;;48.20;25.37;;;6.90;99.90;;;;;;5029428;28;20419;-76
2022/03/31 04:56:47;;;;;;;44.90;22.53;;;6.80;99.90;;;;;;5030819;28;20189;-76
2022/03/31 04:59:13;;;;;;;42.13;22.90;;;6.80;99.90;;;;;;5030581;28;20192;-76
2022/03/31 05:01:39;;;;;;;60.60;24.80;;;6.80;99.90;;;;;;5030517;28;20611;-76
2022/03/31 05:04:05;;;;;;;52.73;24.83;;;6.70;99.90;;;;;;5030476;28;20230;-76
2022/03/31 05:06:30;;;;;;;53.43;25.67;;;6.70;99.90;;;;;;5028853;28;20422;-76
2022/03/31 05:08:56;;;;;;;52.27;26.30;;;6.60;99.90;;;;;;5030152;28;20307;-76
2022/03/31 05:11:21;;;;;;;60.13;26.17;;;6.60;99.90;;;;;;5012117;28;20682;-76
2022/03/31 05:13:47;;;;;;;57.23;26.50;;;6.60;99.90;;;;;;5012201;28;20178;-76
2022/03/31 05:16:13;;;;;;;71.53;29.20;;;6.60;99.90;;;;;;5028797;28;20184;-76
2022/03/31 05:18:38;;;;;;;67.07;27.17;;;6.60;99.90;;;;;;5030310;28;20184;-77
2022/03/31 05:21:04;;;;;;;65.90;25.93;;;6.60;99.90;;;;;;5030357;28;20267;-76
2022/03/31 05:23:30;;;;;;;56.73;27.47;;;6.60;99.90;;;;;;5030193;28;20228;-76
2022/03/31 05:25:55;;;;;;;51.30;26.10;;;6.60;99.90;;;;;;5028952;28;20859;-76
2022/03/31 05:28:21;;;;;;;41.17;23.40;;;6.60;99.90;;;;;;5027460;28;20208;-76
2022/03/31 05:30:47;;;;;;;42.47;24.60;;;6.60;99.90;;;;;;5030002;28;20187;-76
2022/03/31 05:33:13;;;;;;;47.67;25.03;;;6.50;99.90;;;;;;5029954;28;20501;-76
2022/03/31 05:35:38;;;;;;;73.53;28.37;;;6.50;99.90;;;;;;5030364;28;20279;-76
2022/03/31 05:38:04;;;;;;;47.77;25.50;;;6.60;99.90;;;;;;5029903;28;20180;-76
2022/03/31 05:40:30;;;;;;;43.30;24.90;;;6.40;99.90;;;;;;5029957;28;20184;-76
2022/03/31 05:42:56;;;;;;;59.17;25.57;;;6.50;99.90;;;;;;5045022;28;20951;-76
2022/03/31 05:45:25;;;;;;;59.83;26.60;;;6.50;99.90;;;;;;5045102;28;20693;-76
2022/03/31 05:47:52;;;;;;;53.67;27.20;;;6.50;99.90;;;;;;5028226;28;20726;-76
2022/03/31 05:50:17;;;;;;;71.73;28.60;;;6.50;99.90;;;;;;5029727;28;20926;-76
2022/03/31 05:52:43;;;;;;;46.17;24.23;;;6.40;99.90;;;;;;5044297;28;20467;-76
2022/03/31 05:55:12;;;;;;;50.40;27.40;;;6.40;99.90;;;;;;5029145;28;20187;-76
2022/03/31 05:57:38;;;;;;;56.20;27.33;;;6.40;99.90;;;;;;5029191;28;20419;-76
2022/03/31 06:00:06;;;;;;;52.77;26.50;;;6.40;99.90;;;;;;5029095;28;20428;-76
2022/03/31 06:02:31;;;;;;;49.97;26.03;;;6.40;99.90;;;;;;5029037;28;20212;-77
2022/03/31 06:04:57;;;;;;;45.70;25.57;;;6.40;99.90;;;;;;5027932;28;20446;-76
2022/03/31 06:07:23;;;;;;;61.90;26.97;;;6.40;99.90;;;;;;5029390;28;20212;-77
2022/03/31 06:09:48;;;;;;;62.00;27.87;;;6.30;99.90;;;;;;5029684;28;20521;-77
2022/03/31 06:12:14;;;;;;;85.20;30.27;;;6.40;99.90;;;;;;5011587;28;20203;-77
2022/03/31 06:14:40;;;;;;;57.93;26.97;;;6.40;99.90;;;;;;5027960;28;20176;-77
2022/03/31 06:17:05;;;;;;;44.10;25.27;;;6.40;99.90;;;;;;5011499;28;20188;-77
2022/03/31 06:19:32;;;;;;;44.40;25.80;;;6.40;99.90;;;;;;5028277;28;20188;-77
2022/03/31 06:21:57;;;;;;;58.20;27.40;;;6.40;99.90;;;;;;5030104;28;20681;-76
2022/03/31 06:24:23;;;;;;;47.10;25.53;;;6.50;99.90;;;;;;5030235;28;20426;-77
2022/03/31 06:26:49;;;;;;;43.33;25.23;;;6.40;99.90;;;;;;5029749;28;20209;-77
2022/03/31 06:29:15;;;;;;;68.10;27.03;;;6.50;99.90;;;;;;5029857;28;20180;-77
2022/03/31 06:31:41;;;;;;;120.63;31.67;;;6.50;99.90;;;;;;4995217;28;20209;-77
2022/03/31 06:34:07;;;;;;;60.87;29.10;;;6.50;99.90;;;;;;5028106;28;20432;-77
2022/03/31 06:36:33;;;;;;;86.63;29.50;;;6.60;99.90;;;;;;5027848;28;21202;-77
2022/03/31 06:38:59;;;;;;;47.13;26.07;;;6.50;99.90;;;;;;5011398;28;21261;-77
2022/03/31 06:41:24;;;;;;;77.63;30.07;;;6.50;99.90;;;;;;5029641;28;20469;-77
2022/03/31 06:43:50;;;;;;;83.70;28.10;;;6.40;99.90;;;;;;5044881;28;20206;-77
2022/03/31 06:46:17;;;;;;;74.87;29.10;;;6.40;99.90;;;;;;5029118;28;20188;-77
2022/03/31 06:48:48;;;;;;;56.20;27.27;;;6.40;99.90;;;;;;5028973;28;20200;-77
2022/03/31 06:51:16;;;;;;;44.07;23.50;;;6.30;99.90;;;;;;5011577;28;20424;-77
2022/03/31 06:53:43;;;;;;;55.30;27.70;;;6.60;99.90;;;;;;5027232;28;20443;-76
2022/03/31 06:56:13;;;;;;;56.33;26.23;;;6.50;99.90;;;;;;5028579;28;20420;-77
2022/03/31 06:58:39;;;;;;;43.20;25.23;;;6.50;99.90;;;;;;5028491;28;20430;-77
2022/03/31 07:01:05;;;;;;;49.07;27.30;;;6.50;99.90;;;;;;5026956;28;20845;-77
2022/03/31 07:03:31;;;;;;;64.83;27.57;;;6.50;99.90;;;;;;5028183;28;20435;-77
2022/03/31 07:05:56;;;;;;;51.83;26.47;;;6.50;99.90;;;;;;5028142;28;20188;-77
2022/03/31 07:08:23;;;;;;;60.63;26.73;;;6.50;99.90;;;;;;5027882;28;20204;-77
2022/03/31 07:10:49;;;;;;;68.90;28.93;;;6.60;99.90;;;;;;5026723;28;20415;-77
2022/03/31 07:13:15;;;;;;;47.67;25.50;;;6.50;99.90;;;;;;5027904;28;20431;-77
2022/03/31 07:15:41;;;;;;;50.10;24.53;;;6.50;99.90;;;;;;5028168;28;20787;-77
2022/03/31 07:18:07;;;;;;;41.90;24.17;;;6.60;99.90;;;;;;5028003;28;20426;-77
2022/03/31 07:20:34;;;;;;;51.97;27.10;;;6.60;99.90;;;;;;5028029;28;20416;-77
2022/03/31 07:23:00;;;;;;;57.83;26.13;;;6.60;99.90;;;;;;5042921;28;20451;-77
2022/03/31 07:25:27;;;;;;;49.97;26.20;;;6.60;99.90;;;;;;5028082;28;20448;-76
2022/03/31 07:27:52;;;;;;;46.93;24.37;;;6.60;99.90;;;;;;5027868;28;20501;-77
2022/03/31 07:30:20;;;;;;;51.30;25.50;;;6.70;99.90;;;;;;5042894;28;20455;-76
2022/03/31 07:32:56;;;;;;;45.13;25.43;;;6.60;99.90;;;;;;5027725;28;20215;-77
2022/03/31 07:35:26;;;;;;;69.43;27.93;;;6.70;99.90;;;;;;5028347;28;20792;-77
2022/03/31 07:37:53;;;;;;;57.47;25.80;;;6.70;99.90;;;;;;5028170;28;20511;-76
2022/03/31 07:40:20;;;;;;;52.30;26.30;;;6.60;99.90;;;;;;5028122;28;20478;-77
2022/03/31 07:42:46;;;;;;;74.60;27.37;;;6.70;99.90;;;;;;5027021;28;20471;-76
2022/03/31 07:45:12;;;;;;;55.53;26.47;;;6.70;99.90;;;;;;5027033;28;20524;-77
2022/03/31 07:47:42;;;;;;;52.80;25.87;;;6.70;99.90;;;;;;5028369;28;20486;-76
2022/03/31 07:50:10;;;;;;;57.07;28.80;;;6.70;99.90;;;;;;5027641;28;20923;-77
2022/03/31 07:52:40;;;;;;;48.77;25.80;;;6.70;99.90;;;;;;5033110;28;20503;-77
2022/03/31 07:55:07;;;;;;;37.53;23.80;;;6.80;99.90;;;;;;5014348;28;20418;-77
2022/03/31 07:57:33;;;;;;;45.93;23.83;;;6.80;99.90;;;;;;5030703;28;20459;-77
2022/03/31 07:59:59;;;;;;;51.27;27.97;;;6.90;99.90;;;;;;5031683;28;20605;-77
2022/03/31 08:02:26;;;;;;;80.03;27.97;;;6.90;99.90;;;;;;5031166;28;20320;-77
2022/03/31 08:04:52;;;;;;;48.00;24.57;;;6.90;99.90;;;;;;5029662;28;21138;-77
2022/03/31 08:07:18;;;;;;;39.20;23.40;;;6.90;99.90;;;;;;5029391;28;20502;-77
2022/03/31 08:09:43;;;;;;;37.30;23.43;;;6.90;99.90;;;;;;5031016;28;20455;-77
2022/03/31 08:12:10;;;;;;;39.23;24.67;;;7.00;99.90;;;;;;5046067;28;20222;-77
2022/03/31 08:14:36;;;;;;;37.50;24.67;;;6.90;99.90;;;;;;5031113;28;20255;-77
2022/03/31 08:17:02;;;;;;;39.57;22.73;;;7.00;99.90;;;;;;5031042;28;20406;-77
2022/03/31 08:19:30;;;;;;;56.27;27.87;;;7.00;99.90;;;;;;5031016;28;20427;-77
2022/03/31 08:21:57;;;;;;;50.57;26.70;;;6.90;99.90;;;;;;5013581;28;20610;-77
2022/03/31 08:24:23;;;;;;;47.07;27.13;;;7.00;99.90;;;;;;5031037;28;20939;-77
2022/03/31 08:26:50;;;;;;;36.43;23.00;;;7.00;99.90;;;;;;5029366;28;20466;-77
2022/03/31 08:29:17;;;;;;;36.90;22.70;;;7.00;99.90;;;;;;5029253;28;20983;-77
2022/03/31 08:31:43;;;;;;;41.50;24.73;;;7.00;99.90;;;;;;5030601;28;20858;-77
2022/03/31 08:34:09;;;;;;;47.97;26.10;;;7.00;99.90;;;;;;5030851;28;20488;-77
2022/03/31 08:36:36;;;;;;;40.43;24.30;;;7.10;99.90;;;;;;5029239;28;20423;-77
2022/03/31 08:39:04;;;;;;;37.87;23.50;;;7.10;99.90;;;;;;5029070;28;20889;-77
2022/03/31 08:41:29;;;;;;;44.17;25.63;;;7.10;99.90;;;;;;5030419;28;20411;-77
2022/03/31 08:43:56;;;;;;;48.80;26.20;;;7.10;99.90;;;;;;5030482;28;21271;-77
2022/03/31 08:46:23;;;;;;;44.37;27.53;;;7.10;99.90;;;;;;5028878;28;20185;-77
2022/03/31 08:48:49;;;;;;;51.67;28.47;;;7.10;99.90;;;;;;5012384;28;21035;-77
2022/03/31 08:51:15;;;;;;;51.90;28.50;;;7.10;99.90;;;;;;5030217;28;20423;-77
2022/03/31 08:53:41;;;;;;;58.83;29.80;;;7.10;99.90;;;;;;5030105;28;20443;-77
2022/03/31 08:56:10;;;;;;;60.57;30.73;;;7.20;99.90;;;;;;5030147;28;21267;-77
2022/03/31 08:58:36;;;;;;;50.40;27.27;;;7.30;99.90;;;;;;5028792;28;20193;-77
2022/03/31 09:01:02;;;;;;;51.60;27.13;;;7.30;99.90;;;;;;5028616;28;20428;-77
2022/03/31 09:03:38;;;;;;;39.37;25.10;;;7.30;99.90;;;;;;5030064;28;20799;-77
2022/03/31 09:06:04;;;;;;;38.90;23.83;;;7.30;99.90;;;;;;5030276;28;20426;-77
2022/03/31 09:08:30;;;;;;;37.17;23.50;;;7.30;99.90;;;;;;5030134;28;21280;-77
2022/03/31 09:11:00;;;;;;;45.70;26.87;;;7.30;99.90;;;;;;5030008;28;20462;-77
2022/03/31 09:13:40;;;;;;;57.00;29.27;;;7.30;99.90;;;;;;5045141;28;20502;-77
2022/03/31 09:16:11;;;;;;;53.80;29.50;;;7.30;99.90;;;;;;5028644;28;20427;-77
2022/03/31 09:18:38;;;;;;;51.87;28.27;;;7.50;99.90;;;;;;5012248;28;20846;-77
2022/03/31 09:21:06;;;;;;;50.80;29.33;;;7.40;99.90;;;;;;5028214;28;20427;-77
2022/03/31 09:23:43;;;;;;;53.70;28.20;;;7.40;99.90;;;;;;5029625;28;20486;-77
2022/03/31 09:26:12;;;;;;;50.80;27.87;;;7.40;99.90;;;;;;5029494;28;21374;-77
2022/03/31 09:28:39;;;;;;;47.23;27.20;;;7.50;99.90;;;;;;5029337;28;20459;-77
2022/03/31 09:31:08;;;;;;;46.87;27.97;;;7.50;99.90;;;;;;5027944;28;20419;-77
2022/03/31 09:33:48;;;;;;;50.93;29.77;;;7.50;99.90;;;;;;5027601;28;20964;-77
2022/03/31 09:36:19;;;;;;;51.97;27.60;;;7.60;99.90;;;;;;5028092;28;20415;-77
2022/03/31 09:38:55;;;;;;;51.23;29.23;;;7.60;99.90;;;;;;5029315;28;20431;-77
2022/03/31 09:41:32;;;;;;;54.57;28.03;;;7.60;99.90;;;;;;5027832;28;20417;-77
2022/03/31 09:44:06;;;;;;;48.13;27.20;;;7.70;99.90;;;;;;5027824;28;20431;-77
2022/03/31 09:46:38;;;;;;;46.77;27.60;;;7.80;99.90;;;;;;5029024;28;20414;-77
2022/03/31 09:49:18;;;;;;;49.30;27.20;;;7.90;99.90;;;;;;5027791;28;20432;-77
2022/03/31 09:51:48;;;;;;;46.47;29.63;;;8.00;99.90;;;;;;5028000;28;20446;-77
2022/03/31 09:54:14;;;;;;;43.00;25.97;;;8.00;99.90;;;;;;5027867;28;20431;-77
2022/03/31 09:56:41;;;;;;;47.20;26.40;;;8.00;99.90;;;;;;5044487;28;20435;-77
2022/03/31 09:59:09;;;;;;;43.20;24.97;;;8.10;99.90;;;;;;5029204;28;20423;-77
2022/03/31 10:01:36;;;;;;;46.03;25.60;;;8.20;99.90;;;;;;5029199;28;20448;-77
2022/03/31 10:04:04;;;;;;;44.23;26.60;;;8.20;99.90;;;;;;5027748;28;20946;-77
2022/03/31 10:06:36;;;;;;;36.83;24.63;;;8.30;99.90;;;;;;5027466;28;20495;-77
2022/03/31 10:09:03;;;;;;;42.83;25.70;;;8.40;99.90;;;;;;5028985;28;20430;-77
2022/03/31 10:11:31;;;;;;;48.30;25.23;;;8.60;99.90;;;;;;5029079;28;20673;-77
2022/03/31 10:14:15;;;;;;;40.97;25.17;;;8.90;99.90;;;;;;5028414;28;20988;-77
2022/03/31 10:16:48;;;;;;;48.63;29.93;;;9.20;99.90;;;;;;5027428;28;20436;-77
2022/03/31 10:19:32;;;;;;;47.33;28.97;;;9.40;99.90;;;;;;5027943;28;20420;-77
2022/03/31 10:22:04;;;;;;;38.60;24.40;;;9.80;99.90;;;;;;5029535;28;20438;-77
2022/03/31 10:24:46;;;;;;;35.70;23.80;;;10.20;99.90;;;;;;5044709;28;20497;-77
2022/03/31 10:27:26;;;;;;;29.97;20.47;;;10.30;99.90;;;;;;5029652;28;20534;-77
2022/03/31 10:29:52;;;;;;;35.63;22.33;;;10.50;99.90;;;;;;5029465;28;20410;-77
2022/03/31 10:32:23;;;;;;;29.27;18.77;;;10.90;99.90;;;;;;5044273;28;20551;-77
2022/03/31 10:34:54;;;;;;;34.03;22.50;;;11.00;99.90;;;;;;5028191;28;20430;-77
2022/03/31 10:37:32;;;;;;;33.70;21.80;;;10.90;99.90;;;;;;5029243;28;20452;-77
2022/03/31 10:39:58;;;;;;;35.93;21.43;;;10.90;99.90;;;;;;5027481;28;20519;-77
2022/03/31 10:42:27;;;;;;;31.97;21.77;;;11.10;99.90;;;;;;5028638;28;20529;-77
2022/03/31 10:45:04;;;;;;;32.40;21.50;;;11.00;99.90;;;;;;5028831;28;20423;-77
2022/03/31 10:47:34;;;;;;;32.07;20.50;;;10.90;99.90;;;;;;5028544;28;20467;-77
2022/03/31 10:50:00;;;;;;;33.13;20.80;;;10.80;99.90;;;;;;5027309;28;20425;-77
2022/03/31 10:52:28;;;;;;;33.37;20.37;;;10.90;99.90;;;;;;5043772;28;20449;-77
2022/03/31 10:55:11;;;;;;;33.60;22.23;;;10.80;99.90;;;;;;5043981;28;20439;-77
2022/03/31 10:57:40;;;;;;;33.30;22.60;;;10.80;99.90;;;;;;5027259;28;20444;-77
2022/03/31 11:00:08;;;;;;;36.13;22.80;;;10.70;99.90;;;;;;5026961;28;20441;-77
2022/03/31 11:02:40;;;;;;;30.00;20.70;;;10.70;99.90;;;;;;5028301;28;20454;-77
2022/03/31 11:05:07;;;;;;;31.83;20.63;;;10.80;99.90;;;;;;5027439;28;20420;-77
2022/03/31 11:07:32;;;;;;;33.73;22.73;;;10.70;99.90;;;;;;5028413;28;20463;-77
2022/03/31 11:10:13;;;;;;;37.97;23.03;;;10.60;99.90;;;;;;5028736;28;20433;-77
2022/03/31 11:12:40;;;;;;;37.80;25.00;;;10.40;99.90;;;;;;5028261;28;20665;-77
2022/03/31 11:15:08;;;;;;;41.70;25.57;;;10.30;99.90;;;;;;5043515;28;20899;-77
2022/03/31 11:17:37;;;;;;;43.20;25.20;;;10.30;99.90;;;;;;5028350;28;20423;-77
2022/03/31 11:20:16;;;;;;;44.33;25.30;;;10.20;99.90;;;;;;5027952;28;20428;-77
2022/03/31 11:22:47;;;;;;;42.50;26.77;;;10.20;99.90;;;;;;5028403;28;20509;-77
2022/03/31 11:25:14;;;;;;;41.20;25.73;;;10.10;99.90;;;;;;5026547;28;20548;-77
2022/03/31 11:27:42;;;;;;;36.77;25.50;;;10.10;99.90;;;;;;5026534;28;20509;-77
2022/03/31 11:30:13;;;;;;;45.23;27.87;;;10.10;99.90;;;;;;5010511;28;20454;-77
2022/03/31 11:32:40;;;;;;;44.23;27.07;;;10.20;99.90;;;;;;5027605;28;20490;-77
2022/03/31 11:35:17;;;;;;;50.07;28.20;;;10.20;99.90;;;;;;5027747;28;20432;-77
2022/03/31 11:37:55;;;;;;;49.63;25.70;;;10.20;99.90;;;;;;5010725;28;20861;-77
2022/03/31 11:40:32;;;;;;;45.47;26.53;;;10.10;99.90;;;;;;5027334;28;20480;-77
2022/03/31 11:43:00;;;;;;;49.20;28.00;;;10.10;99.90;;;;;;5009969;28;20455;-77
2022/03/31 11:45:47;;;;;;;47.30;27.43;;;10.00;99.90;;;;;;5026491;28;20431;-77
2022/03/31 11:48:35;;;;;;;46.93;27.83;;;10.20;99.90;;;;;;5026478;28;20970;-77
2022/03/31 11:51:03;;;;;;;46.23;28.40;;;10.30;99.90;;;;;;5027954;28;20411;-77
2022/03/31 11:53:35;;;;;;;48.60;27.37;;;10.40;99.90;;;;;;5028044;28;20443;-77
2022/03/31 11:56:00;;;;;;;45.03;28.67;;;10.60;99.90;;;;;;5043331;28;20439;-77
2022/03/31 11:58:27;;;;;;;48.67;28.17;;;10.80;99.90;;;;;;5044251;28;20428;-77
2022/03/31 12:00:54;;;;;;;45.73;27.20;;;11.00;99.90;;;;;;5027597;28;20228;-77
2022/03/31 12:03:19;;;;;;;47.23;26.87;;;11.40;99.90;;;;;;5027256;28;20600;-77
2022/03/31 12:06:00;;;;;;;44.60;26.10;;;11.80;99.90;;;;;;5027478;28;20969;-78
2022/03/31 12:08:27;;;;;;;43.43;26.77;;;12.00;99.90;;;;;;5025772;28;20666;-77
2022/03/31 12:10:54;;;;;;;43.43;23.63;;;11.90;99.90;;;;;;5025913;28;21255;-77
2022/03/31 12:13:22;;;;;;;38.37;24.00;;;11.90;99.90;;;;;;5027191;28;20857;-77
2022/03/31 12:15:48;;;;;;;38.10;23.80;;;11.90;99.90;;;;;;5027286;28;20419;-77
2022/03/31 12:18:17;;;;;;;36.70;23.63;;;12.00;99.90;;;;;;5027151;28;20416;-77
2022/03/31 12:20:46;;;;;;;34.40;22.27;;;12.10;99.90;;;;;;5027124;28;20417;-77
2022/03/31 12:23:23;;;;;;;40.20;24.50;;;12.40;99.90;;;;;;5026832;28;20461;-77
2022/03/31 12:25:50;;;;;;;34.10;21.43;;;12.60;99.90;;;;;;5025250;28;21017;-77
2022/03/31 12:28:20;;;;;;;37.43;24.87;;;12.60;99.90;;;;;;5026807;28;20468;-77
2022/03/31 12:30:45;;;;;;;31.37;21.57;;;12.80;99.90;;;;;;5025226;28;20444;-77
2022/03/31 12:33:30;;;;;;;34.97;21.77;;;13.20;99.90;;;;;;5026480;28;20543;-77
2022/03/31 12:36:00;;;;;;;32.67;22.07;;;13.50;99.90;;;;;;5026953;28;20311;-77
2022/03/31 12:38:44;;;;;;;32.50;22.20;;;13.60;99.90;;;;;;5029208;28;20429;-77
2022/03/31 12:41:15;;;;;;;34.30;21.40;;;13.50;99.90;;;;;;5045617;28;20420;-77